createdAt,value
2022-12-26T00:00:59.862Z,41.53
2022-12-26T00:04:03.237Z,42.35
2022-12-26T00:07:08.155Z,41.70
2022-12-26T00:10:11.660Z,40.72
2022-12-26T00:13:38.613Z,41.40
2022-12-26T00:16:40.471Z,40.65
2022-12-26T00:19:43.853Z,42.90
2022-12-26T00:22:49.084Z,42.80
2022-12-26T00:25:52.890Z,41.78
2022-12-26T00:28:56.883Z,43.17
2022-12-26T00:32:00.302Z,42.90
2022-12-26T00:35:03.766Z,42.38
2022-12-26T00:38:08.520Z,45.47
2022-12-26T00:41:13.404Z,45.00
2022-12-26T00:44:17.074Z,44.60
2022-12-26T00:47:20.358Z,45.55
2022-12-26T00:50:25.458Z,44.95
2022-12-26T00:53:31.979Z,44.40
2022-12-26T00:56:35.321Z,44.63
2022-12-26T00:59:38.752Z,43.92
2022-12-26T01:02:42.344Z,47.65
2022-12-26T01:05:47.647Z,48.25
2022-12-26T01:08:53.805Z,47.22
2022-12-26T01:11:57.042Z,48.63
2022-12-26T01:15:00.587Z,48.50
2022-12-26T01:18:04.094Z,47.80
2022-12-26T01:21:10.185Z,49.03
2022-12-26T01:24:14.869Z,46.97
2022-12-26T01:27:18.295Z,49.20
2022-12-26T01:30:21.662Z,49.13
2022-12-26T01:33:24.934Z,48.55
2022-12-26T01:36:28.205Z,48.45
2022-12-26T01:39:33.081Z,47.20
2022-12-26T01:42:39.766Z,46.63
2022-12-26T01:45:44.321Z,46.28
2022-12-26T01:48:48.023Z,47.63
2022-12-26T01:51:54.411Z,44.58
2022-12-26T01:54:59.888Z,46.88
2022-12-26T01:58:06.176Z,45.85
2022-12-26T02:01:10.988Z,44.17
2022-12-26T02:04:31.800Z,45.28
2022-12-26T02:07:36.301Z,42.97
2022-12-26T02:10:51.720Z,39.78
2022-12-26T02:13:56.043Z,40.83
2022-12-26T02:16:59.523Z,41.15
2022-12-26T02:20:11.410Z,39.47
2022-12-26T02:23:43.573Z,39.72
2022-12-26T02:27:15.725Z,36.80
2022-12-26T02:30:43.503Z,39.80
2022-12-26T02:34:02.198Z,36.63
2022-12-26T02:37:21.918Z,37.58
2022-12-26T02:40:42.722Z,36.72
2022-12-26T02:43:55.515Z,36.75
2022-12-26T02:47:07.804Z,37.03
2022-12-26T02:50:34.551Z,37.05
2022-12-26T02:54:04.583Z,36.40
2022-12-26T02:57:30.654Z,35.33
2022-12-26T03:00:55.095Z,35.47
2022-12-26T03:04:23.170Z,36.20
2022-12-26T03:07:47.116Z,36.88
2022-12-26T03:11:10.433Z,35.35
2022-12-26T03:14:18.611Z,36.50
2022-12-26T03:17:27.347Z,34.72
2022-12-26T03:20:35.388Z,34.67
2022-12-26T03:23:42.096Z,34.22
2022-12-26T03:26:50.167Z,35.22
2022-12-26T03:30:12.820Z,34.38
2022-12-26T03:33:30.133Z,33.83
2022-12-26T03:36:42.979Z,35.97
2022-12-26T03:40:12.353Z,34.67
2022-12-26T03:43:42.952Z,34.15
2022-12-26T03:47:19.499Z,33.47
2022-12-26T03:50:50.181Z,34.35
2022-12-26T03:54:17.708Z,35.58
2022-12-26T03:57:42.612Z,34.70
2022-12-26T04:01:04.855Z,34.83
2022-12-26T04:04:44.274Z,34.33
2022-12-26T04:08:14.862Z,33.10
2022-12-26T04:11:42.072Z,34.67
2022-12-26T04:15:06.664Z,33.55
2022-12-26T04:18:31.656Z,33.53
2022-12-26T04:22:00.469Z,33.78
2022-12-26T04:25:50.644Z,32.72
2022-12-26T04:29:08.827Z,32.08
2022-12-26T04:32:34.116Z,32.70
2022-12-26T04:36:01.927Z,32.28
2022-12-26T04:39:25.172Z,31.05
2022-12-26T04:42:46.875Z,33.45
2022-12-26T04:45:52.100Z,34.15
2022-12-26T04:49:14.271Z,33.78
2022-12-26T04:52:17.686Z,35.95
2022-12-26T04:55:22.371Z,33.65
2022-12-26T04:58:27.546Z,32.95
2022-12-26T05:01:49.684Z,34.17
2022-12-26T05:05:10.106Z,32.78
2022-12-26T05:11:39.627Z,32.72
2022-12-26T05:14:42.798Z,32.83
2022-12-26T05:18:05.128Z,32.92
2022-12-26T05:21:29.930Z,32.53
2022-12-26T05:24:55.346Z,30.13
2022-12-26T05:28:21.461Z,31.05
2022-12-26T05:31:28.304Z,31.27
2022-12-26T05:34:34.813Z,29.77
2022-12-26T05:37:38.070Z,31.10
2022-12-26T05:40:41.262Z,30.63
2022-12-26T05:43:44.470Z,31.20
2022-12-26T05:46:48.638Z,29.90
2022-12-26T05:49:53.634Z,31.85
2022-12-26T05:52:58.079Z,30.95
2022-12-26T05:56:05.029Z,30.10
2022-12-26T05:59:08.173Z,28.23
2022-12-26T06:02:11.474Z,30.20
2022-12-26T06:05:16.269Z,28.80
2022-12-26T06:08:19.428Z,28.23
2022-12-26T06:11:23.095Z,29.60
2022-12-26T06:14:26.341Z,27.08
2022-12-26T06:17:29.543Z,28.33
2022-12-26T06:20:34.064Z,28.17
2022-12-26T06:23:37.806Z,29.17
2022-12-26T06:26:41.335Z,28.17
2022-12-26T06:29:44.697Z,30.05
2022-12-26T06:32:47.855Z,29.27
2022-12-26T06:35:52.720Z,28.05
2022-12-26T06:38:56.881Z,26.48
2022-12-26T06:42:00.561Z,28.17
2022-12-26T06:45:04.474Z,26.88
2022-12-26T06:48:08.043Z,26.25
2022-12-26T06:51:14.115Z,26.40
2022-12-26T06:54:17.313Z,28.17
2022-12-26T06:57:20.666Z,27.38
2022-12-26T07:00:24.512Z,27.20
2022-12-26T07:03:29.278Z,27.27
2022-12-26T07:06:36.085Z,28.80
2022-12-26T07:09:39.430Z,29.25
2022-12-26T07:12:42.708Z,122.95
2022-12-26T07:15:46.095Z,42.70
2022-12-26T07:18:49.447Z,188.13
2022-12-26T07:21:54.318Z,200.27
2022-12-26T07:24:57.863Z,304.30
2022-12-26T07:28:01.680Z,269.95
2022-12-26T07:31:05.851Z,159.43
2022-12-26T07:34:09.465Z,33.65
2022-12-26T07:37:14.311Z,164.30
2022-12-26T07:40:17.672Z,91.88
2022-12-26T07:43:20.988Z,39.60
2022-12-26T07:46:26.988Z,41.30
2022-12-26T07:49:30.261Z,28.63
2022-12-26T07:52:36.297Z,36.13
2022-12-26T07:55:39.435Z,26.98
2022-12-26T07:58:42.728Z,124.93
2022-12-26T08:01:46.265Z,107.25
2022-12-26T08:04:49.621Z,25.83
2022-12-26T08:07:54.156Z,30.42
2022-12-26T08:11:02.184Z,31.10
2022-12-26T08:14:05.884Z,35.03
2022-12-26T08:17:10.107Z,27.45
2022-12-26T08:20:13.703Z,28.70
2022-12-26T08:23:18.731Z,28.25
2022-12-26T08:26:23.210Z,86.75
2022-12-26T08:29:26.584Z,32.00
2022-12-26T08:32:29.977Z,28.80
2022-12-26T08:35:34.917Z,30.17
2022-12-26T08:38:40.295Z,31.10
2022-12-26T08:41:43.853Z,33.03
2022-12-26T08:44:47.637Z,31.38
2022-12-26T08:47:51.233Z,31.75
2022-12-26T08:51:02.834Z,32.30
2022-12-26T08:54:08.054Z,31.55
2022-12-26T08:57:11.540Z,33.30
2022-12-26T09:00:16.647Z,34.80
2022-12-26T09:03:20.325Z,32.10
2022-12-26T09:06:23.932Z,33.22
2022-12-26T09:09:28.895Z,33.40
2022-12-26T09:12:32.292Z,33.03
2022-12-26T09:15:35.635Z,32.65
2022-12-26T09:18:39.346Z,34.75
2022-12-26T09:21:43.188Z,31.27
2022-12-26T09:24:48.565Z,30.83
2022-12-26T09:27:58.854Z,33.83
2022-12-26T09:31:03.335Z,38.15
2022-12-26T09:34:08.651Z,29.88
2022-12-26T09:37:11.995Z,29.88
2022-12-26T09:40:24.615Z,30.10
2022-12-26T09:43:39.179Z,28.35
2022-12-26T09:46:53.970Z,29.95
2022-12-26T09:50:04.125Z,29.27
2022-12-26T09:53:12.914Z,38.78
2022-12-26T09:57:01.111Z,44.75
2022-12-26T09:59:50.343Z,39.70
2022-12-26T10:02:56.831Z,38.40
2022-12-26T10:06:11.776Z,40.33
2022-12-26T10:09:33.312Z,28.40
2022-12-26T10:12:43.823Z,24.48
2022-12-26T10:15:51.259Z,34.35
2022-12-26T10:19:03.200Z,37.20
2022-12-26T10:22:20.817Z,29.10
2022-12-26T10:25:33.748Z,31.13
2022-12-26T10:28:46.067Z,24.00
2022-12-26T10:31:53.432Z,23.55
2022-12-26T10:34:56.972Z,24.63
2022-12-26T10:38:06.092Z,21.52
2022-12-26T10:41:14.565Z,21.88
2022-12-26T10:44:25.718Z,29.83
2022-12-26T10:47:37.874Z,23.10
2022-12-26T10:50:44.931Z,25.17
2022-12-26T10:53:52.229Z,47.10
2022-12-26T10:56:58.410Z,31.60
2022-12-26T11:00:06.071Z,25.80
2022-12-26T11:03:12.633Z,28.25
2022-12-26T11:06:16.159Z,20.35
2022-12-26T11:09:40.708Z,22.08
2022-12-26T11:12:50.785Z,21.48
2022-12-26T11:15:58.364Z,21.65
2022-12-26T11:19:02.872Z,20.65
2022-12-26T11:22:27.177Z,21.80
2022-12-26T11:25:38.974Z,21.60
2022-12-26T11:28:42.338Z,21.88
2022-12-26T11:31:57.845Z,21.25
2022-12-26T11:35:01.291Z,21.67
2022-12-26T11:38:07.595Z,21.92
2022-12-26T11:41:30.981Z,23.63
2022-12-26T11:44:41.061Z,23.05
2022-12-26T11:47:47.712Z,20.83
2022-12-26T11:50:52.075Z,20.10
2022-12-26T11:54:19.868Z,18.00
2022-12-26T11:57:28.465Z,17.27
2022-12-26T12:00:32.275Z,17.17
2022-12-26T12:03:48.587Z,15.90
2022-12-26T12:07:02.483Z,15.15
2022-12-26T12:10:33.293Z,15.88
2022-12-26T12:13:49.685Z,15.35
2022-12-26T12:17:02.552Z,16.80
2022-12-26T12:20:30.290Z,15.20
2022-12-26T12:23:48.464Z,16.50
2022-12-26T12:27:04.570Z,17.10
2022-12-26T12:30:18.120Z,16.63
2022-12-26T12:33:38.379Z,18.40
2022-12-26T12:37:00.197Z,19.08
2022-12-26T12:40:14.667Z,19.80
2022-12-26T12:43:23.411Z,17.85
2022-12-26T12:46:36.796Z,19.65
2022-12-26T12:50:00.181Z,19.60
2022-12-26T12:53:14.646Z,17.45
2022-12-26T12:56:26.146Z,17.80
2022-12-26T12:59:39.971Z,19.23
2022-12-26T13:02:47.807Z,18.63
2022-12-26T13:05:59.152Z,19.33
2022-12-26T13:09:08.292Z,19.95
2022-12-26T13:12:19.464Z,20.50
2022-12-26T13:15:31.030Z,21.15
2022-12-26T13:18:38.829Z,20.45
2022-12-26T13:21:44.560Z,20.63
2022-12-26T13:24:56.890Z,20.45
2022-12-26T13:28:09.681Z,21.52
2022-12-26T13:31:14.044Z,27.80
2022-12-26T13:34:19.939Z,24.00
2022-12-26T13:37:55.981Z,20.88
2022-12-26T13:41:24.813Z,20.73
2022-12-26T13:44:27.848Z,20.52
2022-12-26T13:47:37.351Z,19.48
2022-12-26T13:50:55.726Z,19.60
2022-12-26T13:54:03.892Z,19.90
2022-12-26T13:57:38.706Z,19.40
2022-12-26T14:00:46.402Z,21.27
2022-12-26T14:04:04.875Z,21.98
2022-12-26T14:07:22.735Z,21.60
2022-12-26T14:10:39.876Z,23.63
2022-12-26T14:14:06.126Z,25.38
2022-12-26T14:17:23.731Z,22.58
2022-12-26T14:20:42.594Z,23.08
2022-12-26T14:23:53.323Z,21.65
2022-12-26T14:27:09.851Z,25.40
2022-12-26T14:30:25.524Z,24.55
2022-12-26T14:33:36.875Z,24.13
2022-12-26T14:36:47.346Z,24.95
2022-12-26T14:40:06.334Z,25.55
2022-12-26T14:43:27.644Z,27.52
2022-12-26T14:47:04.912Z,29.65
2022-12-26T14:50:40.404Z,25.98
2022-12-26T14:53:46.045Z,26.25
2022-12-26T14:56:50.676Z,28.20
2022-12-26T15:00:26.701Z,27.83
2022-12-26T15:03:47.772Z,27.10
2022-12-26T15:07:20.760Z,27.80
2022-12-26T15:11:02.429Z,30.35
2022-12-26T15:14:33.341Z,29.80
2022-12-26T15:17:47.608Z,31.65
2022-12-26T15:21:38.165Z,31.70
2022-12-26T15:28:48.360Z,31.83
2022-12-26T15:32:06.477Z,33.25
2022-12-26T15:35:20.117Z,33.08
2022-12-26T15:38:33.573Z,34.03
2022-12-26T15:41:44.432Z,33.85
2022-12-26T15:44:58.569Z,33.97
2022-12-26T15:48:08.383Z,34.92
2022-12-26T15:51:15.612Z,36.20
2022-12-26T15:54:35.025Z,36.80
2022-12-26T15:57:50.012Z,36.05
2022-12-26T16:00:55.631Z,36.15
2022-12-26T16:04:01.711Z,38.47
2022-12-26T16:07:10.498Z,42.70
2022-12-26T16:10:30.189Z,47.33
2022-12-26T16:13:34.898Z,35.13
2022-12-26T16:16:39.747Z,44.83
2022-12-26T16:19:44.834Z,42.78
2022-12-26T16:22:47.958Z,43.65
2022-12-26T16:25:56.284Z,45.70
2022-12-26T16:29:01.864Z,42.97
2022-12-26T16:32:06.697Z,39.65
2022-12-26T16:35:20.560Z,38.78
2022-12-26T16:38:28.267Z,36.90
2022-12-26T16:42:01.432Z,36.63
2022-12-26T16:45:07.034Z,39.45
2022-12-26T16:48:14.848Z,37.92
2022-12-26T16:51:39.602Z,37.40
2022-12-26T16:54:43.464Z,40.05
2022-12-26T16:57:48.442Z,41.47
2022-12-26T17:01:02.809Z,41.85
2022-12-26T17:04:17.325Z,41.58
2022-12-26T17:07:21.757Z,41.50
2022-12-26T17:10:28.133Z,38.95
2022-12-26T17:13:33.233Z,36.28
2022-12-26T17:16:36.936Z,36.17
2022-12-26T17:19:42.394Z,39.22
2022-12-26T17:22:45.909Z,39.60
2022-12-26T17:25:50.986Z,36.70
2022-12-26T17:28:56.159Z,31.75
2022-12-26T17:31:59.861Z,28.48
2022-12-26T17:35:06.659Z,28.75
2022-12-26T17:38:20.507Z,28.92
2022-12-26T17:41:24.352Z,29.60
2022-12-26T17:44:50.081Z,31.30
2022-12-26T17:47:56.941Z,32.55
2022-12-26T17:51:02.828Z,32.65
2022-12-26T17:54:06.794Z,29.13
2022-12-26T17:57:21.287Z,31.88
2022-12-26T18:00:30.367Z,28.27
2022-12-26T18:03:35.257Z,29.98
2022-12-26T18:06:42.258Z,28.50
2022-12-26T18:09:47.612Z,29.65
2022-12-26T18:12:53.322Z,28.95
2022-12-26T18:15:59.749Z,30.67
2022-12-26T18:19:04.023Z,40.78
2022-12-26T18:22:12.496Z,30.17
2022-12-26T18:25:24.536Z,32.22
2022-12-26T18:28:35.929Z,36.72
2022-12-26T18:31:49.997Z,36.88
2022-12-26T18:34:57.241Z,33.42
2022-12-26T18:38:03.834Z,36.33
2022-12-26T18:41:14.993Z,34.08
2022-12-26T18:44:29.271Z,32.22
2022-12-26T18:47:37.331Z,30.00
2022-12-26T18:50:40.946Z,29.45
2022-12-26T18:53:44.557Z,30.92
2022-12-26T18:56:48.035Z,30.25
2022-12-26T18:59:53.003Z,31.02
2022-12-26T19:02:58.354Z,33.38
2022-12-26T19:06:01.894Z,32.53
2022-12-26T19:09:07.969Z,34.60
2022-12-26T19:12:11.890Z,35.35
2022-12-26T19:15:17.173Z,35.20
2022-12-26T19:18:22.265Z,33.58
2022-12-26T19:21:26.595Z,37.40
2022-12-26T19:24:34.542Z,34.20
2022-12-26T19:27:38.583Z,36.53
2022-12-26T19:30:42.325Z,37.97
2022-12-26T19:33:50.505Z,37.30
2022-12-26T19:36:54.332Z,36.85
2022-12-26T19:40:00.140Z,36.47
2022-12-26T19:43:03.725Z,42.20
2022-12-26T19:46:11.600Z,46.42
2022-12-26T19:49:17.545Z,43.83
2022-12-26T19:52:21.285Z,62.10
2022-12-26T19:55:24.832Z,40.90
2022-12-26T19:58:32.462Z,36.42
2022-12-26T20:01:36.255Z,34.13
2022-12-26T20:04:43.047Z,33.97
2022-12-26T20:07:47.994Z,35.22
2022-12-26T20:10:55.875Z,34.38
2022-12-26T20:14:08.275Z,37.22
2022-12-26T20:17:13.684Z,36.88
2022-12-26T20:20:22.478Z,37.10
2022-12-26T20:23:29.835Z,38.65
2022-12-26T20:26:38.089Z,41.50
2022-12-26T20:29:44.341Z,42.50
2022-12-26T20:32:56.369Z,42.20
2022-12-26T20:36:06.653Z,40.70
2022-12-26T20:39:16.524Z,58.80
2022-12-26T20:42:23.767Z,170.63
2022-12-26T20:45:28.686Z,125.60
2022-12-26T20:48:33.927Z,53.70
2022-12-26T20:51:42.752Z,41.65
2022-12-26T20:54:49.392Z,44.65
2022-12-26T20:57:53.018Z,43.30
2022-12-26T21:01:00.746Z,52.35
2022-12-26T21:04:06.202Z,48.17
2022-12-26T21:07:12.769Z,50.40
2022-12-26T21:10:17.559Z,51.72
2022-12-26T21:13:25.807Z,47.85
2022-12-26T21:16:36.855Z,53.75
2022-12-26T21:19:41.855Z,50.97
2022-12-26T21:22:52.775Z,49.63
2022-12-26T21:25:59.247Z,49.00
2022-12-26T21:29:04.822Z,53.58
2022-12-26T21:32:11.056Z,50.53
2022-12-26T21:35:14.955Z,50.55
2022-12-26T21:38:21.674Z,53.95
2022-12-26T21:41:27.603Z,55.60
2022-12-26T21:44:31.123Z,51.58
2022-12-26T21:47:34.585Z,51.50
2022-12-26T21:50:38.960Z,51.97
2022-12-26T21:53:43.906Z,48.88
2022-12-26T21:56:46.313Z,51.67
2022-12-26T21:59:59.282Z,50.38
2022-12-26T22:03:23.177Z,48.55
2022-12-26T22:06:27.504Z,49.63
2022-12-26T22:09:32.903Z,47.13
2022-12-26T22:12:53.418Z,47.88
2022-12-26T22:16:08.194Z,48.10
2022-12-26T22:19:12.424Z,43.47
2022-12-26T22:22:16.378Z,44.35
2022-12-26T22:25:23.039Z,47.20
2022-12-26T22:28:29.566Z,43.63
2022-12-26T22:31:39.016Z,44.13
2022-12-26T22:34:43.810Z,43.00
2022-12-26T22:37:48.619Z,41.88
2022-12-26T22:40:59.003Z,43.97
2022-12-26T22:47:05.627Z,41.40
2022-12-26T22:50:11.842Z,41.97
2022-12-26T22:53:15.678Z,44.25
2022-12-26T22:56:21.488Z,43.80
2022-12-26T22:59:58.128Z,44.97
2022-12-26T23:02:48.167Z,43.97
2022-12-26T23:05:52.390Z,45.20
2022-12-26T23:08:57.874Z,43.65
2022-12-26T23:12:28.851Z,45.05
2022-12-26T23:15:32.491Z,44.42
2022-12-26T23:18:59.003Z,45.45
2022-12-26T23:22:04.036Z,46.17
2022-12-26T23:25:08.519Z,45.63
2022-12-26T23:28:30.731Z,45.50
2022-12-26T23:31:34.116Z,44.20
2022-12-26T23:34:38.254Z,44.08
2022-12-26T23:37:42.304Z,45.47
2022-12-26T23:40:45.740Z,51.22
2022-12-26T23:43:50.817Z,49.47
2022-12-26T23:46:54.209Z,48.38
2022-12-26T23:49:57.628Z,51.35
2022-12-26T23:53:01.461Z,45.75
2022-12-26T23:56:08.715Z,44.70
2022-12-26T23:59:13.513Z,44.95
